Terminal Aerodrome Forecast
Issued by NWS Chicago, IL

Home | Current Version | Previous Version | Text Only | Print | Product List | Glossary Off
Versions: 1 2 3 4 5 6 7 8 9 10 11 12 13 14 15 16 17 18 19 20 21 22 23 24 25

068
FTUS43 KLOT 252320
TAFRFD
TAF
KRFD 252320Z 2600/2624 VRB03KT P6SM FEW050 SCT200
     FM261300 13012KT P6SM BKN100
     FM261700 11012KT P6SM VCSH SCT020 BKN035 PROB30 2617/2621 4SM
      -TSRA BKN020 OVC035CB=

USA.gov is the U.S. government's official web portal to all federal, state and local government web resources and services.